Chelyabinsk Balandino Airport
USCC : now visible

Airfield :











YOU CAN JOIN US ON...

 
LOGIN :

Register | Disclaimer

   EN    FR    IT 

 









Legend :    VFR   Marginal VFR   IFR   Intensive IFR   Very Intensive IFR
Visi :
Ceiling :
>= 8 km
>= 3000ft
5 to 8 km
1000 to 3000 ft
1500m to 5 km
500 to 1000 ft
800 to 1500m
200 to 500 ft
< 800m
< 200 ft
Symbols :   Thunderstorms  Fog  Heavy snow  Heavy precipitations  Wind > 20 kt






- Airport Elevation : 769 ft
- IATA code : CEK


USCC - Chelyabinsk Balandino

CURRENT METAR :
  • 260130Z 10006MPS 1500 R09/P2000D SN VV002 M06/M06 Q1001 R09/420348 TEMPO 0300 +SN VV001 RMK QBB080 QFE730

EXPIRED METARs :
  • 260100Z 10006MPS 1400 1300N R09/P2000U SN VV003 M06/M06 Q1002 R09/420348 TEMPO 0300 +SN VV001 RMK QBB110 QFE731
  • 260030Z 11005MPS 1300 R09/P2000D SN VV002 M06/M06 Q1003 R09/000060 TEMPO 1100 SN VV001 RMK QBB070 QFE731
  • 260000Z 11006MPS 1300 1200N R09/P2000D SN VV002 M06/M06 Q1003 R09/000060 TEMPO 1100 SN VV001 RMK QBB080 QFE732
  • 252330Z 11007MPS 2500 -SN OVC003 M06/M06 Q1004 R09/000060 TEMPO 1100 SN VV001 RMK QBB090 QFE732
  • 252300Z 12006MPS 5000 -SN BR OVC004 M06/M06 Q1004 R09/000060 TEMPO 1100 SN VV003 RMK QFE733

TAF TAF USCC
Valid from the 26 at 00:00 until the 27 at 00:00 UTC


252300Z 2600/2624 09003G10MPS 1200 -SN BR OVC004
TEMPO 2600/2615 11005G13MPS 0500 +SN +FZDZ VV002
FM261500 35003G10MPS 3100 BR BKN011CB
TEMPO 2615/2621 33005G12MPS -SHSN



MET'MAP, your aeronautical weather chart ! - Copyright ORBIFLY December 2007 - Disclaimer

ORBIFLY MET'MAP TEAM :

Programming & Development : Alexandra Zaïnal
Concept & original design : Baudouin d'Aumeries
Assistance for programming : Marc-Olivier Méhu
Technical & hardware support : Manuel Goepfert

Contact : metmap@orbifly.com




SOURCES & CREDITS :

   NOAA       Earth
Advisory